sensor_id;sensor_type;location;lat;lon;timestamp;pressure;altitude;pressure_sealevel;temperature;humidity
80186;BME280;69904;52.122;5.422;2024-02-15T00:01:35;101692.38;;;11.34;100.00
80186;BME280;69904;52.122;5.422;2024-02-15T00:04:01;101692.38;;;11.34;100.00
80186;BME280;69904;52.122;5.422;2024-02-15T00:06:28;101691.53;;;11.33;100.00
80186;BME280;69904;52.122;5.422;2024-02-15T00:08:54;101688.81;;;11.33;100.00
80186;BME280;69904;52.122;5.422;2024-02-15T00:11:21;101696.09;;;11.33;100.00
80186;BME280;69904;52.122;5.422;2024-02-15T00:13:48;101689.88;;;11.32;100.00
80186;BME280;69904;52.122;5.422;2024-02-15T00:16:14;101690.03;;;11.31;100.00
80186;BME280;69904;52.122;5.422;2024-02-15T00:18:41;101676.69;;;11.29;100.00
80186;BME280;69904;52.122;5.422;2024-02-15T00:21:08;101679.22;;;11.31;100.00
80186;BME280;69904;52.122;5.422;2024-02-15T00:23:34;101686.66;;;11.29;100.00
80186;BME280;69904;52.122;5.422;2024-02-15T00:26:01;101686.84;;;11.27;100.00
80186;BME280;69904;52.122;5.422;2024-02-15T00:28:27;101679.56;;;11.28;100.00
80186;BME280;69904;52.122;5.422;2024-02-15T00:30:54;101684.81;;;11.29;100.00
80186;BME280;69904;52.122;5.422;2024-02-15T00:33:20;101688.53;;;11.28;100.00
80186;BME280;69904;52.122;5.422;2024-02-15T00:35:49;101683.97;;;11.29;100.00
80186;BME280;69904;52.122;5.422;2024-02-15T00:38:18;101684.97;;;11.28;100.00
80186;BME280;69904;52.122;5.422;2024-02-15T00:40:45;101683.13;;;11.28;100.00
80186;BME280;69904;52.122;5.422;2024-02-15T00:43:12;101683.13;;;11.28;100.00
80186;BME280;69904;52.122;5.422;2024-02-15T00:45:39;101682.28;;;11.28;100.00
80186;BME280;69904;52.122;5.422;2024-02-15T00:48:06;101677.72;;;11.28;100.00
80186;BME280;69904;52.122;5.422;2024-02-15T00:50:33;101676.88;;;11.28;100.00
80186;BME280;69904;52.122;5.422;2024-02-15T00:53:00;101672.53;;;11.27;100.00
80186;BME280;69904;52.122;5.422;2024-02-15T00:55:26;101667.13;;;11.27;100.00
80186;BME280;69904;52.122;5.422;2024-02-15T00:57:53;101668.13;;;11.26;100.00
80186;BME280;69904;52.122;5.422;2024-02-15T01:00:19;101669.16;;;11.25;100.00
80186;BME280;69904;52.122;5.422;2024-02-15T01:02:47;101671.84;;;11.25;100.00
80186;BME280;69904;52.122;5.422;2024-02-15T01:05:13;101671.00;;;11.24;100.00
80186;BME280;69904;52.122;5.422;2024-02-15T01:07:41;101669.31;;;11.23;100.00
80186;BME280;69904;52.122;5.422;2024-02-15T01:10:08;101670.16;;;11.24;100.00
80186;BME280;69904;52.122;5.422;2024-02-15T01:12:35;101675.56;;;11.24;100.00
80186;BME280;69904;52.122;5.422;2024-02-15T01:15:02;101673.03;;;11.22;100.00
80186;BME280;69904;52.122;5.422;2024-02-15T01:17:29;101662.22;;;11.22;100.00
80186;BME280;69904;52.122;5.422;2024-02-15T01:19:55;101667.63;;;11.22;100.00
80186;BME280;69904;52.122;5.422;2024-02-15T01:22:22;101669.50;;;11.22;100.00
80186;BME280;69904;52.122;5.422;2024-02-15T01:24:51;101667.63;;;11.22;100.00
80186;BME280;69904;52.122;5.422;2024-02-15T01:27:17;101667.63;;;11.22;100.00
80186;BME280;69904;52.122;5.422;2024-02-15T01:29:44;101653.28;;;11.22;100.00
80186;BME280;69904;52.122;5.422;2024-02-15T01:32:10;101655.16;;;11.21;100.00
80186;BME280;69904;52.122;5.422;2024-02-15T01:34:37;101652.47;;;11.21;100.00
80186;BME280;69904;52.122;5.422;2024-02-15T01:37:03;101658.69;;;11.22;100.00
80186;BME280;69904;52.122;5.422;2024-02-15T01:39:30;101656.81;;;11.22;100.00
80186;BME280;69904;52.122;5.422;2024-02-15T01:41:56;101654.31;;;11.21;100.00
80186;BME280;69904;52.122;5.422;2024-02-15T01:44:23;101659.53;;;11.22;100.00
80186;BME280;69904;52.122;5.422;2024-02-15T01:46:51;101659.53;;;11.22;100.00
80186;BME280;69904;52.122;5.422;2024-02-15T01:49:21;101657.66;;;11.23;100.00
80186;BME280;69904;52.122;5.422;2024-02-15T01:51:53;101653.94;;;11.24;100.00
80186;BME280;69904;52.122;5.422;2024-02-15T01:54:23;101661.88;;;11.25;100.00
80186;BME280;69904;52.122;5.422;2024-02-15T01:56:49;101661.03;;;11.25;100.00
80186;BME280;69904;52.122;5.422;2024-02-15T01:59:17;101654.63;;;11.26;100.00
80186;BME280;69904;52.122;5.422;2024-02-15T02:01:44;101653.59;;;11.27;100.00
80186;BME280;69904;52.122;5.422;2024-02-15T02:04:11;101652.56;;;11.28;100.00
80186;BME280;69904;52.122;5.422;2024-02-15T02:06:37;101638.41;;;11.26;100.00
80186;BME280;69904;52.122;5.422;2024-02-15T02:09:04;101631.97;;;11.27;100.00
80186;BME280;69904;52.122;5.422;2024-02-15T02:11:31;101638.41;;;11.26;100.00
80186;BME280;69904;52.122;5.422;2024-02-15T02:13:58;101637.38;;;11.27;100.00
80186;BME280;69904;52.122;5.422;2024-02-15T02:18:54;101638.56;;;11.24;100.00
80186;BME280;69904;52.122;5.422;2024-02-15T02:21:21;101632.31;;;11.24;100.00
80186;BME280;69904;52.122;5.422;2024-02-15T02:23:53;101626.09;;;11.23;100.00
80186;BME280;69904;52.122;5.422;2024-02-15T02:26:22;101630.66;;;11.23;100.00
80186;BME280;69904;52.122;5.422;2024-02-15T02:28:50;101628.16;;;11.21;100.00
80186;BME280;69904;52.122;5.422;2024-02-15T02:31:17;101621.06;;;11.20;100.00
80186;BME280;69904;52.122;5.422;2024-02-15T02:33:48;101618.53;;;11.19;100.00
80186;BME280;69904;52.122;5.422;2024-02-15T02:36:15;101613.31;;;11.17;100.00
80186;BME280;69904;52.122;5.422;2024-02-15T02:38:42;101609.75;;;11.17;100.00
80186;BME280;69904;52.122;5.422;2024-02-15T02:41:12;101619.91;;;11.15;100.00
80186;BME280;69904;52.122;5.422;2024-02-15T02:43:41;101610.13;;;11.14;100.00
80186;BME280;69904;52.122;5.422;2024-02-15T02:46:11;101616.56;;;11.13;100.00
80186;BME280;69904;52.122;5.422;2024-02-15T02:48:38;101621.13;;;11.12;100.00
80186;BME280;69904;52.122;5.422;2024-02-15T02:51:06;101621.13;;;11.12;100.00
80186;BME280;69904;52.122;5.422;2024-02-15T02:53:33;101627.53;;;11.11;100.00
80186;BME280;69904;52.122;5.422;2024-02-15T02:56:00;101620.28;;;11.12;100.00
80186;BME280;69904;52.122;5.422;2024-02-15T02:58:27;101614.03;;;11.11;100.00
80186;BME280;69904;52.122;5.422;2024-02-15T03:00:53;101608.81;;;11.10;100.00
80186;BME280;69904;52.122;5.422;2024-02-15T03:03:20;101615.72;;;11.12;100.00
80186;BME280;69904;52.122;5.422;2024-02-15T03:05:49;101617.41;;;11.13;100.00
80186;BME280;69904;52.122;5.422;2024-02-15T03:08:17;101606.75;;;11.12;100.00
80186;BME280;69904;52.122;5.422;2024-02-15T03:10:43;101614.03;;;11.11;100.00
80186;BME280;69904;52.122;5.422;2024-02-15T03:13:10;101611.31;;;11.11;100.00
80186;BME280;69904;52.122;5.422;2024-02-15T03:15:36;101606.75;;;11.12;100.00
80186;BME280;69904;52.122;5.422;2024-02-15T03:18:03;101609.47;;;11.12;100.00
80186;BME280;69904;52.122;5.422;2024-02-15T03:20:33;101612.16;;;11.12;100.00
80186;BME280;69904;52.122;5.422;2024-02-15T03:23:01;101603.22;;;11.11;100.00
80186;BME280;69904;52.122;5.422;2024-02-15T03:25:29;101615.72;;;11.12;100.00
80186;BME280;69904;52.122;5.422;2024-02-15T03:27:56;101608.63;;;11.11;100.00
80186;BME280;69904;52.122;5.422;2024-02-15T03:30:27;101600.72;;;11.10;100.00
80186;BME280;69904;52.122;5.422;2024-02-15T03:32:55;101602.56;;;11.09;100.00
80186;BME280;69904;52.122;5.422;2024-02-15T03:35:24;101598.38;;;11.07;100.00
80186;BME280;69904;52.122;5.422;2024-02-15T03:37:51;101603.78;;;11.07;100.00
80186;BME280;69904;52.122;5.422;2024-02-15T03:40:21;101597.53;;;11.06;100.00
80186;BME280;69904;52.122;5.422;2024-02-15T03:42:48;101587.56;;;11.07;100.00
80186;BME280;69904;52.122;5.422;2024-02-15T03:45:16;101592.13;;;11.06;100.00
80186;BME280;69904;52.122;5.422;2024-02-15T03:47:43;101603.97;;;11.05;100.00
80186;BME280;69904;52.122;5.422;2024-02-15T03:50:10;101595.03;;;11.05;100.00
80186;BME280;69904;52.122;5.422;2024-02-15T03:52:37;101595.88;;;11.05;100.00
80186;BME280;69904;52.122;5.422;2024-02-15T03:55:04;101586.94;;;11.05;100.00
80186;BME280;69904;52.122;5.422;2024-02-15T03:57:31;101587.09;;;11.03;100.00
80186;BME280;69904;52.122;5.422;2024-02-15T03:59:59;101605.00;;;11.04;100.00
80186;BME280;69904;52.122;5.422;2024-02-15T04:02:27;101598.75;;;11.04;100.00
80186;BME280;69904;52.122;5.422;2024-02-15T04:04:54;101585.25;;;11.04;100.00
80186;BME280;69904;52.122;5.422;2024-02-15T04:07:22;101587.94;;;11.04;100.00
80186;BME280;69904;52.122;5.422;2024-02-15T04:09:51;101590.63;;;11.04;100.00
80186;BME280;69904;52.122;5.422;2024-02-15T04:12:18;101584.56;;;11.02;100.00
80186;BME280;69904;52.122;5.422;2024-02-15T04:14:44;101595.03;;;11.05;100.00
80186;BME280;69904;52.122;5.422;2024-02-15T04:17:15;101588.78;;;11.04;100.00
80186;BME280;69904;52.122;5.422;2024-02-15T04:19:48;101592.50;;;11.03;100.00
80186;BME280;69904;52.122;5.422;2024-02-15T04:22:16;101590.63;;;11.04;100.00
80186;BME280;69904;52.122;5.422;2024-02-15T04:24:43;101590.63;;;11.04;100.00
80186;BME280;69904;52.122;5.422;2024-02-15T04:27:12;101587.09;;;11.03;100.00
80186;BME280;69904;52.122;5.422;2024-02-15T04:29:42;101579.84;;;11.04;100.00
80186;BME280;69904;52.122;5.422;2024-02-15T04:32:11;101575.44;;;11.03;100.00
80186;BME280;69904;52.122;5.422;2024-02-15T04:34:41;101584.22;;;11.05;100.00
80186;BME280;69904;52.122;5.422;2024-02-15T04:37:08;101582.38;;;11.05;100.00
80186;BME280;69904;52.122;5.422;2024-02-15T04:39:38;101579.66;;;11.05;100.00
80186;BME280;69904;52.122;5.422;2024-02-15T04:42:04;101577.81;;;11.06;100.00
80186;BME280;69904;52.122;5.422;2024-02-15T04:44:40;101583.00;;;11.07;100.00
80186;BME280;69904;52.122;5.422;2024-02-15T04:47:07;101574.06;;;11.07;100.00
80186;BME280;69904;52.122;5.422;2024-02-15T04:49:35;101576.75;;;11.07;100.00
80186;BME280;69904;52.122;5.422;2024-02-15T04:52:05;101569.50;;;11.07;100.00
80186;BME280;69904;52.122;5.422;2024-02-15T04:54:32;101575.75;;;11.08;100.00
80186;BME280;69904;52.122;5.422;2024-02-15T04:56:59;101566.78;;;11.07;100.00
80186;BME280;69904;52.122;5.422;2024-02-15T04:59:27;101569.50;;;11.07;100.00
80186;BME280;69904;52.122;5.422;2024-02-15T05:01:55;101572.19;;;11.07;100.00
80186;BME280;69904;52.122;5.422;2024-02-15T05:04:25;101564.09;;;11.07;100.00
80186;BME280;69904;52.122;5.422;2024-02-15T05:06:51;101555.81;;;11.09;100.00
80186;BME280;69904;52.122;5.422;2024-02-15T05:09:19;101553.28;;;11.07;100.00
80186;BME280;69904;52.122;5.422;2024-02-15T05:11:46;101555.16;;;11.07;100.00
80186;BME280;69904;52.122;5.422;2024-02-15T05:14:14;101560.53;;;11.07;100.00
80186;BME280;69904;52.122;5.422;2024-02-15T05:16:46;101560.53;;;11.07;100.00
80186;BME280;69904;52.122;5.422;2024-02-15T05:19:15;101565.94;;;11.07;100.00
80186;BME280;69904;52.122;5.422;2024-02-15T05:21:45;101568.47;;;11.08;100.00
80186;BME280;69904;52.122;5.422;2024-02-15T05:24:16;101565.78;;;11.08;100.00
80186;BME280;69904;52.122;5.422;2024-02-15T05:26:44;101576.41;;;11.10;100.00
80186;BME280;69904;52.122;5.422;2024-02-15T05:29:15;101567.28;;;11.11;100.00
80186;BME280;69904;52.122;5.422;2024-02-15T05:31:41;101568.31;;;11.10;100.00
80186;BME280;69904;52.122;5.422;2024-02-15T05:34:10;101567.94;;;11.13;100.00
80186;BME280;69904;52.122;5.422;2024-02-15T05:36:38;101564.38;;;11.12;100.00
80186;BME280;69904;52.122;5.422;2024-02-15T05:39:05;101561.50;;;11.14;100.00
80186;BME280;69904;52.122;5.422;2024-02-15T05:41:32;101540.72;;;11.14;100.00
80186;BME280;69904;52.122;5.422;2024-02-15T05:43:59;101534.50;;;11.14;100.00
80186;BME280;69904;52.122;5.422;2024-02-15T05:46:25;101514.91;;;11.12;100.00
80186;BME280;69904;52.122;5.422;2024-02-15T05:48:54;101493.13;;;11.13;100.00
80186;BME280;69904;52.122;5.422;2024-02-15T05:51:21;101481.28;;;11.14;100.00
80186;BME280;69904;52.122;5.422;2024-02-15T05:53:48;101477.75;;;11.14;100.00
80186;BME280;69904;52.122;5.422;2024-02-15T05:56:16;101498.34;;;11.15;100.00
80186;BME280;69904;52.122;5.422;2024-02-15T05:58:42;101501.91;;;11.15;100.00
80186;BME280;69904;52.122;5.422;2024-02-15T06:01:09;101510.00;;;11.15;100.00
80186;BME280;69904;52.122;5.422;2024-02-15T06:03:39;101505.44;;;11.16;100.00
80186;BME280;69904;52.122;5.422;2024-02-15T06:06:07;101504.59;;;11.15;100.00
80186;BME280;69904;52.122;5.422;2024-02-15T06:08:35;101502.06;;;11.14;100.00
80186;BME280;69904;52.122;5.422;2024-02-15T06:11:03;101513.72;;;11.14;100.00
80186;BME280;69904;52.122;5.422;2024-02-15T06:13:30;101510.00;;;11.15;100.00
80186;BME280;69904;52.122;5.422;2024-02-15T06:15:57;101507.47;;;11.14;100.00
80186;BME280;69904;52.122;5.422;2024-02-15T06:18:26;101507.47;;;11.14;100.00
80186;BME280;69904;52.122;5.422;2024-02-15T06:20:55;101511.00;;;11.14;100.00
80186;BME280;69904;52.122;5.422;2024-02-15T06:23:24;101506.63;;;11.13;100.00
80186;BME280;69904;52.122;5.422;2024-02-15T06:25:53;101520.13;;;11.13;100.00
80186;BME280;69904;52.122;5.422;2024-02-15T06:28:20;101517.44;;;11.13;100.00
80186;BME280;69904;52.122;5.422;2024-02-15T06:31:09;101532.81;;;11.13;100.00
80186;BME280;69904;52.122;5.422;2024-02-15T06:33:55;101523.84;;;11.12;100.00
80186;BME280;69904;52.122;5.422;2024-02-15T06:36:47;101513.03;;;11.12;100.00
80186;BME280;69904;52.122;5.422;2024-02-15T06:39:33;101523.84;;;11.12;100.00
80186;BME280;69904;52.122;5.422;2024-02-15T06:44:38;101520.97;;;11.14;100.00
80186;BME280;69904;52.122;5.422;2024-02-15T06:47:06;101513.72;;;11.14;100.00
80186;BME280;69904;52.122;5.422;2024-02-15T06:49:33;101493.13;;;11.13;100.00
80186;BME280;69904;52.122;5.422;2024-02-15T06:52:00;101496.66;;;11.14;100.00
80186;BME280;69904;52.122;5.422;2024-02-15T06:54:28;101493.97;;;11.14;100.00
80186;BME280;69904;52.122;5.422;2024-02-15T06:56:55;101494.81;;;11.14;100.00
80186;BME280;69904;52.122;5.422;2024-02-15T06:59:21;101490.25;;;11.15;100.00
80186;BME280;69904;52.122;5.422;2024-02-15T07:01:49;101488.38;;;11.15;100.00
80186;BME280;69904;52.122;5.422;2024-02-15T07:04:18;101497.50;;;11.14;100.00
80186;BME280;69904;52.122;5.422;2024-02-15T07:06:47;101501.91;;;11.15;100.00
80186;BME280;69904;52.122;5.422;2024-02-15T07:09:15;101502.72;;;11.16;100.00
80186;BME280;69904;52.122;5.422;2024-02-15T07:11:44;101514.38;;;11.16;100.00
80186;BME280;69904;52.122;5.422;2024-02-15T07:14:17;101513.34;;;11.17;100.00
80186;BME280;69904;52.122;5.422;2024-02-15T07:16:45;101515.84;;;11.19;100.00
80186;BME280;69904;52.122;5.422;2024-02-15T07:19:15;101519.41;;;11.19;100.00
80186;BME280;69904;52.122;5.422;2024-02-15T07:21:42;101524.81;;;11.19;100.00
80186;BME280;69904;52.122;5.422;2024-02-15T07:24:09;101513.81;;;11.21;100.00
80186;BME280;69904;52.122;5.422;2024-02-15T07:26:36;101508.59;;;11.19;100.00
80186;BME280;69904;52.122;5.422;2024-02-15T07:29:03;101508.59;;;11.19;100.00
80186;BME280;69904;52.122;5.422;2024-02-15T07:31:34;101522.09;;;11.19;100.00
80186;BME280;69904;52.122;5.422;2024-02-15T07:34:01;101534.38;;;11.22;100.00
80186;BME280;69904;52.122;5.422;2024-02-15T07:36:28;101547.91;;;11.22;100.00
80186;BME280;69904;52.122;5.422;2024-02-15T07:38:55;101563.94;;;11.23;100.00
80186;BME280;69904;52.122;5.422;2024-02-15T07:41:28;101555.84;;;11.23;100.00
80186;BME280;69904;52.122;5.422;2024-02-15T07:43:54;101565.78;;;11.23;100.00
80186;BME280;69904;52.122;5.422;2024-02-15T07:46:22;101540.47;;;11.24;100.00
80186;BME280;69904;52.122;5.422;2024-02-15T07:48:50;101519.88;;;11.23;100.00
80186;BME280;69904;52.122;5.422;2024-02-15T07:51:18;101553.31;;;11.22;100.00
80186;BME280;69904;52.122;5.422;2024-02-15T07:53:45;101540.63;;;11.22;100.00
80186;BME280;69904;52.122;5.422;2024-02-15T07:56:14;101527.50;;;11.19;100.00
80186;BME280;69904;52.122;5.422;2024-02-15T07:58:45;101533.75;;;11.20;100.00
80186;BME280;69904;52.122;5.422;2024-02-15T08:01:19;101553.50;;;11.20;100.00
80186;BME280;69904;52.122;5.422;2024-02-15T08:03:51;101557.22;;;11.19;100.00
80186;BME280;69904;52.122;5.422;2024-02-15T08:06:20;101549.13;;;11.19;100.00
80186;BME280;69904;52.122;5.422;2024-02-15T08:08:47;101546.41;;;11.19;100.00
80186;BME280;69904;52.122;5.422;2024-02-15T08:11:15;101516.69;;;11.19;100.00
80186;BME280;69904;52.122;5.422;2024-02-15T08:13:44;101506.91;;;11.18;100.00
80186;BME280;69904;52.122;5.422;2024-02-15T08:16:12;101503.38;;;11.18;100.00
80186;BME280;69904;52.122;5.422;2024-02-15T08:18:38;101521.25;;;11.19;100.00
80186;BME280;69904;52.122;5.422;2024-02-15T08:21:05;101514.16;;;11.18;100.00
80186;BME280;69904;52.122;5.422;2024-02-15T08:23:32;101501.69;;;11.17;100.00
80186;BME280;69904;52.122;5.422;2024-02-15T08:25:58;101515.84;;;11.19;100.00
80186;BME280;69904;52.122;5.422;2024-02-15T08:28:25;101506.91;;;11.18;100.00
80186;BME280;69904;52.122;5.422;2024-02-15T08:30:54;101519.22;;;11.21;100.00
80186;BME280;69904;52.122;5.422;2024-02-15T08:33:20;101513.81;;;11.21;100.00
80186;BME280;69904;52.122;5.422;2024-02-15T08:35:47;101518.84;;;11.24;100.00
80186;BME280;69904;52.122;5.422;2024-02-15T08:38:17;101532.34;;;11.24;100.00
80186;BME280;69904;52.122;5.422;2024-02-15T08:40:46;101525.94;;;11.25;100.00
80186;BME280;69904;52.122;5.422;2024-02-15T08:43:14;101519.31;;;11.27;100.00
80186;BME280;69904;52.122;5.422;2024-02-15T08:45:42;101512.03;;;11.28;100.00
80186;BME280;69904;52.122;5.422;2024-02-15T08:48:09;101507.69;;;11.27;100.00
80186;BME280;69904;52.122;5.422;2024-02-15T08:50:35;101507.47;;;11.28;100.00
80186;BME280;69904;52.122;5.422;2024-02-15T08:53:02;101497.50;;;11.29;100.00
80186;BME280;69904;52.122;5.422;2024-02-15T08:55:32;101490.25;;;11.29;100.00
80186;BME280;69904;52.122;5.422;2024-02-15T08:58:02;101487.34;;;11.31;100.00
80186;BME280;69904;52.122;5.422;2024-02-15T09:00:29;101491.53;;;11.33;100.00
80186;BME280;69904;52.122;5.422;2024-02-15T09:02:56;101482.41;;;11.34;100.00
80186;BME280;69904;52.122;5.422;2024-02-15T09:05:23;101476.00;;;11.35;100.00
80186;BME280;69904;52.122;5.422;2024-02-15T09:07:51;101475.16;;;11.35;100.00
80186;BME280;69904;52.122;5.422;2024-02-15T09:10:18;101490.34;;;11.36;100.00
80186;BME280;69904;52.122;5.422;2024-02-15T09:12:46;101488.47;;;11.36;100.00
80186;BME280;69904;52.122;5.422;2024-02-15T09:15:16;101498.44;;;11.36;100.00
80186;BME280;69904;52.122;5.422;2024-02-15T09:17:43;101498.63;;;11.34;100.00
80186;BME280;69904;52.122;5.422;2024-02-15T09:20:13;101507.41;;;11.36;100.00
80186;BME280;69904;52.122;5.422;2024-02-15T09:22:53;101499.28;;;11.36;100.00
80186;BME280;69904;52.122;5.422;2024-02-15T09:25:23;101505.31;;;11.38;100.00
80186;BME280;69904;52.122;5.422;2024-02-15T09:27:50;101501.78;;;11.38;100.00
80186;BME280;69904;52.122;5.422;2024-02-15T09:30:17;101494.50;;;11.38;100.00
80186;BME280;69904;52.122;5.422;2024-02-15T09:32:45;101492.47;;;11.40;100.00
80186;BME280;69904;52.122;5.422;2024-02-15T09:35:12;101493.97;;;11.43;100.00
80186;BME280;69904;52.122;5.422;2024-02-15T09:37:47;101486.69;;;11.44;100.00
80186;BME280;69904;52.122;5.422;2024-02-15T09:40:19;101493.78;;;11.45;100.00
80186;BME280;69904;52.122;5.422;2024-02-15T09:42:46;101496.47;;;11.45;100.00
80186;BME280;69904;52.122;5.422;2024-02-15T09:45:13;101505.25;;;11.47;100.00
80186;BME280;69904;52.122;5.422;2024-02-15T09:47:44;101495.28;;;11.47;100.00
80186;BME280;69904;52.122;5.422;2024-02-15T09:50:13;101500.69;;;11.47;100.00
80186;BME280;69904;52.122;5.422;2024-02-15T09:52:50;101495.91;;;11.49;100.00
80186;BME280;69904;52.122;5.422;2024-02-15T09:55:18;101499.28;;;11.51;100.00
80186;BME280;69904;52.122;5.422;2024-02-15T09:57:45;101499.09;;;11.53;100.00
80186;BME280;69904;52.122;5.422;2024-02-15T10:00:16;101498.88;;;11.54;100.00
80186;BME280;69904;52.122;5.422;2024-02-15T10:02:46;101499.72;;;11.55;100.00
80186;BME280;69904;52.122;5.422;2024-02-15T10:05:13;101499.72;;;11.55;100.00
80186;BME280;69904;52.122;5.422;2024-02-15T10:07:43;101498.06;;;11.54;100.00
80186;BME280;69904;52.122;5.422;2024-02-15T10:10:17;101496.84;;;11.56;100.00
80186;BME280;69904;52.122;5.422;2024-02-15T10:12:52;101498.72;;;11.56;100.00
80186;BME280;69904;52.122;5.422;2024-02-15T10:15:35;101509.34;;;11.57;100.00
80186;BME280;69904;52.122;5.422;2024-02-15T10:18:07;101512.88;;;11.58;100.00
80186;BME280;69904;52.122;5.422;2024-02-15T10:20:40;101503.19;;;11.63;100.00
80186;BME280;69904;52.122;5.422;2024-02-15T10:23:12;101499.47;;;11.64;100.00
80186;BME280;69904;52.122;5.422;2024-02-15T10:25:40;101504.09;;;11.70;100.00
80186;BME280;69904;52.122;5.422;2024-02-15T10:28:09;101507.63;;;11.71;100.00
80186;BME280;69904;52.122;5.422;2024-02-15T10:30:37;101502.91;;;11.73;100.00
80186;BME280;69904;52.122;5.422;2024-02-15T10:33:04;101505.44;;;11.74;100.00
80186;BME280;69904;52.122;5.422;2024-02-15T10:35:31;101510.63;;;11.76;100.00
80186;BME280;69904;52.122;5.422;2024-02-15T10:38:11;101498.81;;;11.77;100.00
80186;BME280;69904;52.122;5.422;2024-02-15T10:40:42;101503.19;;;11.78;100.00
80186;BME280;69904;52.122;5.422;2024-02-15T10:43:09;101501.78;;;11.82;100.00
80186;BME280;69904;52.122;5.422;2024-02-15T10:45:40;101499.56;;;11.86;100.00
80186;BME280;69904;52.122;5.422;2024-02-15T10:48:10;101494.78;;;11.88;100.00
80186;BME280;69904;52.122;5.422;2024-02-15T10:50:39;101491.72;;;11.91;100.00
80186;BME280;69904;52.122;5.422;2024-02-15T10:53:28;101493.16;;;11.93;100.00
80186;BME280;69904;52.122;5.422;2024-02-15T10:56:21;101478.44;;;11.96;100.00
80186;BME280;69904;52.122;5.422;2024-02-15T10:59:08;101488.09;;;12.05;100.00
80186;BME280;69904;52.122;5.422;2024-02-15T11:01:38;101486.25;;;12.05;100.00
80186;BME280;69904;52.122;5.422;2024-02-15T11:04:12;101484.81;;;12.09;100.00
80186;BME280;69904;52.122;5.422;2024-02-15T11:06:43;101476.13;;;12.14;100.00
80186;BME280;69904;52.122;5.422;2024-02-15T11:09:11;101477.16;;;12.13;100.00
80186;BME280;69904;52.122;5.422;2024-02-15T11:11:39;101486.75;;;12.15;100.00
80186;BME280;69904;52.122;5.422;2024-02-15T11:14:26;101477.03;;;12.21;100.00
80186;BME280;69904;52.122;5.422;2024-02-15T11:16:55;101476.03;;;12.22;100.00
80186;BME280;69904;52.122;5.422;2024-02-15T11:22:02;101478.91;;;12.20;100.00
80186;BME280;69904;52.122;5.422;2024-02-15T11:24:36;101480.78;;;12.20;100.00
80186;BME280;69904;52.122;5.422;2024-02-15T11:27:04;101478.25;;;12.18;100.00
80186;BME280;69904;52.122;5.422;2024-02-15T11:29:57;101478.91;;;12.20;100.00
80186;BME280;69904;52.122;5.422;2024-02-15T11:32:43;101467.25;;;12.20;100.00
80186;BME280;69904;52.122;5.422;2024-02-15T11:40:29;101465.63;;;12.26;100.00
80186;BME280;69904;52.122;5.422;2024-02-15T11:46:23;101453.19;;;12.31;100.00
80186;BME280;69904;52.122;5.422;2024-02-15T11:48:58;101458.78;;;12.30;100.00
80186;BME280;69904;52.122;5.422;2024-02-15T11:51:34;101453.00;;;12.33;100.00
80186;BME280;69904;52.122;5.422;2024-02-15T11:54:10;101445.16;;;12.38;100.00
80186;BME280;69904;52.122;5.422;2024-02-15T11:59:15;101452.25;;;12.39;100.00
80186;BME280;69904;52.122;5.422;2024-02-15T12:02:09;101449.91;;;12.36;100.00
80186;BME280;69904;52.122;5.422;2024-02-15T12:04:54;101455.13;;;12.37;100.00
80186;BME280;69904;52.122;5.422;2024-02-15T12:07:39;101438.06;;;12.37;100.00
80186;BME280;69904;52.122;5.422;2024-02-15T12:10:24;101447.19;;;12.36;100.00
80186;BME280;69904;52.122;5.422;2024-02-15T12:13:09;101438.69;;;12.39;100.00
80186;BME280;69904;52.122;5.422;2024-02-15T12:15:56;101436.44;;;12.42;100.00
80186;BME280;69904;52.122;5.422;2024-02-15T12:18:42;101426.69;;;12.48;100.00
80186;BME280;69904;52.122;5.422;2024-02-15T12:21:10;101424.81;;;12.48;100.00
80186;BME280;69904;52.122;5.422;2024-02-15T12:23:39;101420.88;;;12.51;100.00
80186;BME280;69904;52.122;5.422;2024-02-15T12:26:07;101418.81;;;12.53;100.00
80186;BME280;69904;52.122;5.422;2024-02-15T12:28:34;101418.41;;;12.56;100.00
80186;BME280;69904;52.122;5.422;2024-02-15T12:31:01;101412.63;;;12.59;100.00
80186;BME280;69904;52.122;5.422;2024-02-15T12:33:28;101401.84;;;12.65;100.00
80186;BME280;69904;52.122;5.422;2024-02-15T12:36:05;101402.09;;;12.71;100.00
80186;BME280;69904;52.122;5.422;2024-02-15T12:38:35;101400.47;;;12.76;100.00
80186;BME280;69904;52.122;5.422;2024-02-15T12:41:20;101395.28;;;12.81;100.00
80186;BME280;69904;52.122;5.422;2024-02-15T12:43:54;101398.66;;;12.90;100.00
80186;BME280;69904;52.122;5.422;2024-02-15T12:46:23;101392.69;;;13.01;100.00
80186;BME280;69904;52.122;5.422;2024-02-15T12:48:49;101397.72;;;13.11;100.00
80186;BME280;69904;52.122;5.422;2024-02-15T12:51:16;101389.94;;;13.29;100.00
80186;BME280;69904;52.122;5.422;2024-02-15T12:53:43;101382.28;;;13.52;100.00
80186;BME280;69904;52.122;5.422;2024-02-15T12:56:10;101377.41;;;13.88;100.00
80186;BME280;69904;52.122;5.422;2024-02-15T12:58:36;101371.97;;;14.21;100.00
80186;BME280;69904;52.122;5.422;2024-02-15T13:01:03;101371.56;;;14.70;99.39
80186;BME280;69904;52.122;5.422;2024-02-15T13:03:30;101376.53;;;15.00;97.63
80186;BME280;69904;52.122;5.422;2024-02-15T13:05:57;101368.84;;;15.41;96.71
80186;BME280;69904;52.122;5.422;2024-02-15T13:08:24;101369.13;;;15.27;95.55
80186;BME280;69904;52.122;5.422;2024-02-15T13:10:51;101363.16;;;14.98;95.56